Time;durP1;ratioP1;P1;durP2;ratioP2;P2;SDS_P1;SDS_P2;PMS_P1;PMS_P2;Temp;Humidity;BMP_temperature;BMP_pressure;BME280_temperature;BME280_humidity;BME280_pressure;Samples;Min_cycle;Max_cycle;Signal;HPM_P1;HPM_P2
2021/04/28 00:02:09;;;;;;;8.13;7.40;;;6.30;1.00;;;;;;5073546;28;20229;-79
2021/04/28 00:04:36;;;;;;;7.07;6.47;;;6.30;1.00;;;;;;5091883;28;20228;-78
2021/04/28 00:07:03;;;;;;;8.40;7.60;;;6.30;1.00;;;;;;5078402;28;20599;-79
2021/04/28 00:09:30;;;;;;;8.18;6.65;;;6.30;1.00;;;;;;5096549;28;20263;-79
2021/04/28 00:11:57;;;;;;;11.30;7.63;;;6.30;1.00;;;;;;5095897;28;20225;-79
2021/04/28 00:14:23;;;;;;;8.75;6.78;;;6.20;1.00;;;;;;5095307;28;20219;-78
2021/04/28 00:16:51;;;;;;;12.15;7.93;;;6.20;1.00;;;;;;5091858;28;20206;-77
2021/04/28 00:19:17;;;;;;;9.18;8.27;;;6.30;1.00;;;;;;5094052;28;20225;-78
2021/04/28 00:21:44;;;;;;;8.30;7.60;;;6.20;1.00;;;;;;5091721;28;20233;-80
2021/04/28 00:24:11;;;;;;;8.27;7.47;;;6.20;1.00;;;;;;5086221;28;20221;-80
2021/04/28 00:26:38;;;;;;;10.02;7.55;;;6.20;1.00;;;;;;5084294;28;21760;-79
2021/04/28 00:29:04;;;;;;;6.80;6.20;;;6.20;1.00;;;;;;5080084;28;20224;-79
2021/04/28 00:31:31;;;;;;;8.82;7.90;;;6.20;1.00;;;;;;5067111;28;20235;-79
2021/04/28 00:33:59;;;;;;;7.35;6.65;;;6.20;1.00;;;;;;5076389;28;20221;-79
2021/04/28 00:36:25;;;;;;;7.95;7.15;;;6.10;1.00;;;;;;5065676;28;20240;-80
2021/04/28 00:38:52;;;;;;;7.85;7.15;;;6.10;1.00;;;;;;5076109;28;20232;-79
2021/04/28 00:41:19;;;;;;;11.88;7.47;;;6.00;1.00;;;;;;5081003;28;20258;-78
2021/04/28 00:43:46;;;;;;;8.05;7.20;;;6.00;1.00;;;;;;5068545;28;20233;-78
2021/04/28 00:46:13;;;;;;;9.18;8.23;;;6.00;1.00;;;;;;5060712;28;20260;-78
2021/04/28 00:48:40;;;;;;;7.72;7.03;;;6.00;1.00;;;;;;5060291;28;20228;-79
2021/04/28 00:51:07;;;;;;;8.35;7.45;;;6.00;1.00;;;;;;5050780;28;20237;-79
2021/04/28 00:53:34;;;;;;;8.95;7.40;;;6.00;1.00;;;;;;5058693;28;20217;-80
2021/04/28 00:56:02;;;;;;;10.40;7.07;;;6.00;1.00;;;;;;5044666;28;20228;-80
2021/04/28 00:58:29;;;;;;;10.07;7.65;;;6.00;1.00;;;;;;5066143;28;20220;-80
2021/04/28 01:00:56;;;;;;;8.00;7.15;;;6.00;1.00;;;;;;5082913;28;20252;-78
2021/04/28 01:03:23;;;;;;;8.02;7.03;;;6.00;1.00;;;;;;5058655;28;20240;-80
2021/04/28 01:05:52;;;;;;;7.53;6.82;;;5.90;1.00;;;;;;5049736;28;20233;-79
2021/04/28 01:08:21;;;;;;;9.35;7.53;;;5.90;1.00;;;;;;5046479;28;20250;-79
2021/04/28 01:10:50;;;;;;;7.22;6.53;;;5.90;1.00;;;;;;5045682;28;20221;-78
2021/04/28 01:13:17;;;;;;;9.20;7.25;;;5.90;1.00;;;;;;5028378;28;20229;-80
2021/04/28 01:15:43;;;;;;;7.70;6.90;;;5.90;1.00;;;;;;5065529;28;20212;-79
2021/04/28 01:18:10;;;;;;;7.65;6.88;;;5.80;1.00;;;;;;5065483;28;23310;-80
2021/04/28 01:20:38;;;;;;;8.98;7.03;;;5.80;1.00;;;;;;5069692;28;20681;-81
2021/04/28 01:23:06;;;;;;;8.90;7.10;;;5.80;1.00;;;;;;5059591;28;20327;-80
2021/04/28 01:25:33;;;;;;;10.13;6.72;;;5.80;1.00;;;;;;5060016;28;20221;-79
2021/04/28 01:28:03;;;;;;;7.20;6.60;;;5.80;1.00;;;;;;5061225;28;20225;-79
2021/04/28 01:30:34;;;;;;;8.20;6.93;;;5.70;1.00;;;;;;5056915;28;20228;-80
2021/04/28 01:33:02;;;;;;;7.70;7.00;;;5.70;1.00;;;;;;5057143;28;20259;-79
2021/04/28 01:35:30;;;;;;;7.53;6.72;;;5.70;1.00;;;;;;5056247;28;22678;-78
2021/04/28 01:37:58;;;;;;;9.75;7.70;;;5.70;1.00;;;;;;5045033;28;20251;-79
2021/04/28 01:40:27;;;;;;;7.47;6.85;;;5.70;1.00;;;;;;5040610;28;20219;-78
2021/04/28 01:42:55;;;;;;;8.52;7.70;;;5.60;1.00;;;;;;5058417;28;20232;-79
2021/04/28 01:45:22;;;;;;;8.98;7.53;;;5.60;1.00;;;;;;5049350;28;20772;-78
2021/04/28 01:47:50;;;;;;;9.02;7.22;;;5.60;1.00;;;;;;5062317;28;20284;-77
2021/04/28 01:50:20;;;;;;;7.80;7.00;;;5.60;1.00;;;;;;5062025;28;20216;-80
2021/04/28 01:52:47;;;;;;;9.30;6.90;;;5.60;1.00;;;;;;5042730;28;20239;-80
2021/04/28 01:55:14;;;;;;;10.18;8.10;;;5.60;1.00;;;;;;5076580;28;20668;-80
2021/04/28 01:57:43;;;;;;;9.43;6.78;;;5.60;1.00;;;;;;5076657;28;20221;-80
2021/04/28 02:00:15;;;;;;;7.40;6.70;;;5.60;1.00;;;;;;5053006;28;20399;-78
2021/04/28 02:02:42;;;;;;;8.52;7.70;;;5.60;1.00;;;;;;5058332;28;20229;-79
2021/04/28 02:05:09;;;;;;;10.98;8.60;;;5.50;1.00;;;;;;5061807;28;20217;-79
2021/04/28 02:07:36;;;;;;;10.70;8.00;;;5.50;1.00;;;;;;5063360;28;20220;-78
2021/04/28 02:10:05;;;;;;;9.30;7.40;;;5.50;1.00;;;;;;5058712;28;21156;-80
2021/04/28 02:12:31;;;;;;;10.77;7.47;;;5.50;1.00;;;;;;5059938;28;20224;-81
2021/04/28 02:15:00;;;;;;;9.13;8.15;;;5.50;1.00;;;;;;5041250;28;20221;-80
2021/04/28 02:17:27;;;;;;;8.95;8.05;;;5.40;1.00;;;;;;5088394;28;20217;-80
2021/04/28 02:19:54;;;;;;;10.93;8.02;;;5.40;1.00;;;;;;5091551;28;20213;-79
2021/04/28 02:22:21;;;;;;;9.52;7.68;;;5.40;1.00;;;;;;5081351;28;20232;-79
2021/04/28 02:24:47;;;;;;;8.77;7.78;;;5.40;1.00;;;;;;5070111;28;20247;-78
2021/04/28 02:27:13;;;;;;;11.27;9.45;;;5.40;1.00;;;;;;5066886;28;20239;-79
2021/04/28 02:29:40;;;;;;;10.68;8.70;;;5.40;1.00;;;;;;5045719;28;20242;-78
2021/04/28 02:32:08;;;;;;;8.18;7.43;;;5.30;1.00;;;;;;5067603;28;20310;-79
2021/04/28 02:34:35;;;;;;;8.90;8.00;;;5.30;1.00;;;;;;5051509;28;20229;-80
2021/04/28 02:37:02;;;;;;;9.35;8.20;;;5.30;1.00;;;;;;5063831;28;20233;-78
2021/04/28 02:39:35;;;;;;;9.10;8.05;;;5.20;1.00;;;;;;5059680;28;20303;-79
2021/04/28 02:42:02;;;;;;;9.60;7.88;;;5.20;1.00;;;;;;5066450;28;21124;-79
2021/04/28 02:44:30;;;;;;;11.50;9.27;;;5.20;1.00;;;;;;5078775;28;20260;-78
2021/04/28 02:46:57;;;;;;;9.25;7.38;;;5.20;1.00;;;;;;5090008;28;20224;-79
2021/04/28 02:49:27;;;;;;;11.23;8.90;;;5.20;1.00;;;;;;5083512;28;20233;-77
2021/04/28 02:51:53;;;;;;;9.20;7.95;;;5.10;1.00;;;;;;5084005;28;20224;-79
2021/04/28 02:54:21;;;;;;;14.98;9.93;;;5.10;1.00;;;;;;5091005;28;20208;-79
2021/04/28 02:56:52;;;;;;;12.75;10.02;;;5.10;1.00;;;;;;5068668;28;20255;-78
2021/04/28 02:59:19;;;;;;;10.63;8.70;;;5.00;1.00;;;;;;5070052;28;20229;-78
2021/04/28 03:01:46;;;;;;;11.68;8.70;;;5.00;1.00;;;;;;5069113;28;20233;-80
2021/04/28 03:04:15;;;;;;;13.43;8.80;;;4.90;1.00;;;;;;5068672;28;20379;-79
2021/04/28 03:06:42;;;;;;;11.68;9.50;;;4.90;1.00;;;;;;5063142;28;20213;-79
2021/04/28 03:09:09;;;;;;;8.65;7.75;;;4.90;1.00;;;;;;5065833;28;20291;-78
2021/04/28 03:11:37;;;;;;;10.30;9.10;;;4.80;1.00;;;;;;5067256;28;21050;-79
2021/04/28 03:14:04;;;;;;;11.25;8.98;;;4.80;1.00;;;;;;5079479;28;20213;-79
2021/04/28 03:16:31;;;;;;;9.18;8.27;;;4.80;1.00;;;;;;5069166;28;20486;-79
2021/04/28 03:19:01;;;;;;;9.70;8.68;;;4.80;1.00;;;;;;5065393;28;20222;-81
2021/04/28 03:21:30;;;;;;;11.88;9.57;;;4.80;1.00;;;;;;5066783;28;20231;-80
2021/04/28 03:23:57;;;;;;;10.55;9.15;;;4.70;1.00;;;;;;5066511;28;20300;-80
2021/04/28 03:26:24;;;;;;;11.45;9.02;;;4.70;1.00;;;;;;5063589;28;20221;-80
2021/04/28 03:28:50;;;;;;;17.25;10.63;;;4.70;1.00;;;;;;5051763;28;20256;-80
2021/04/28 03:31:16;;;;;;;15.43;9.30;;;4.60;1.00;;;;;;5048250;28;20259;-80
2021/04/28 03:33:43;;;;;;;12.23;10.13;;;4.60;1.00;;;;;;5067053;28;20217;-78
2021/04/28 03:36:09;;;;;;;17.63;11.30;;;4.50;1.00;;;;;;5067647;28;20225;-78
2021/04/28 03:38:36;;;;;;;13.27;10.85;;;4.60;1.00;;;;;;5074725;28;20304;-78
2021/04/28 03:41:04;;;;;;;12.50;10.50;;;4.50;1.00;;;;;;5057807;28;20217;-81
2021/04/28 03:43:30;;;;;;;13.25;10.30;;;4.50;1.00;;;;;;5086583;28;20224;-79
2021/04/28 03:45:57;;;;;;;10.68;9.63;;;4.50;1.00;;;;;;5083163;28;20218;-79
2021/04/28 03:48:23;;;;;;;11.18;9.20;;;4.50;1.00;;;;;;5090459;28;20228;-80
2021/04/28 03:50:49;;;;;;;15.00;9.88;;;4.50;1.00;;;;;;5070802;28;20220;-83
2021/04/28 03:53:16;;;;;;;13.65;10.85;;;4.50;1.00;;;;;;5087402;28;20212;-81
2021/04/28 03:55:42;;;;;;;12.80;10.50;;;4.50;1.00;;;;;;5065291;28;20233;-78
2021/04/28 03:58:09;;;;;;;9.63;8.63;;;4.50;1.00;;;;;;5082234;28;21142;-79
2021/04/28 04:00:36;;;;;;;19.17;10.57;;;4.50;1.00;;;;;;5084005;28;20252;-79
2021/04/28 04:03:04;;;;;;;10.55;9.52;;;4.50;1.00;;;;;;5076499;28;20268;-80
2021/04/28 04:05:30;;;;;;;11.23;9.93;;;4.40;1.00;;;;;;5082989;28;20284;-78
2021/04/28 04:07:57;;;;;;;12.38;10.27;;;4.40;1.00;;;;;;5085016;28;20363;-81
2021/04/28 04:10:23;;;;;;;18.42;11.88;;;4.40;1.00;;;;;;5082425;28;20348;-80
2021/04/28 04:12:49;;;;;;;10.55;9.50;;;4.40;1.00;;;;;;5058537;28;20330;-81
2021/04/28 04:15:16;;;;;;;13.52;10.55;;;4.40;1.00;;;;;;5067615;28;20236;-77
2021/04/28 04:17:43;;;;;;;17.17;11.20;;;4.40;1.00;;;;;;5057738;28;20220;-77
2021/04/28 04:20:10;;;;;;;12.02;10.82;;;4.40;1.00;;;;;;5046807;28;20229;-80
2021/04/28 04:22:36;;;;;;;24.48;18.70;;;4.40;1.00;;;;;;5066937;28;20236;-79
2021/04/28 04:25:04;;;;;;;10.82;9.82;;;4.40;1.00;;;;;;5070897;28;20275;-79
2021/04/28 04:27:31;;;;;;;14.02;10.23;;;4.40;1.00;;;;;;5070429;28;20227;-79
2021/04/28 04:29:58;;;;;;;14.43;12.75;;;4.40;1.00;;;;;;5082065;28;20219;-76
2021/04/28 04:32:25;;;;;;;13.20;10.55;;;4.40;1.00;;;;;;5076173;28;20283;-78
2021/04/28 04:34:51;;;;;;;13.00;10.70;;;4.40;1.00;;;;;;5055617;28;20311;-78
2021/04/28 04:37:18;;;;;;;10.95;9.73;;;4.50;1.00;;;;;;5059691;28;20229;-77
2021/04/28 04:39:44;;;;;;;12.38;10.98;;;4.50;1.00;;;;;;5082738;28;20231;-79
2021/04/28 04:42:12;;;;;;;14.93;11.82;;;4.50;1.00;;;;;;5090534;28;20213;-77
2021/04/28 04:44:39;;;;;;;13.43;10.60;;;4.50;1.00;;;;;;5090315;28;20340;-79
2021/04/28 04:47:05;;;;;;;15.38;12.20;;;4.50;1.00;;;;;;5073215;28;20230;-78
2021/04/28 04:49:33;;;;;;;15.95;12.30;;;4.60;1.00;;;;;;5054974;28;20252;-78
2021/04/28 04:51:59;;;;;;;14.00;10.65;;;4.50;1.00;;;;;;5071261;28;20217;-79
2021/04/28 04:54:25;;;;;;;13.85;12.35;;;4.50;1.00;;;;;;5070655;28;20217;-80
2021/04/28 04:56:52;;;;;;;21.10;18.80;;;4.50;1.00;;;;;;5053868;28;20229;-78
2021/04/28 04:59:19;;;;;;;14.15;12.45;;;4.60;1.00;;;;;;5076279;28;20247;-77
2021/04/28 05:01:46;;;;;;;13.38;11.98;;;4.60;1.00;;;;;;5062717;28;20225;-80
2021/04/28 05:04:12;;;;;;;14.50;11.50;;;4.60;1.00;;;;;;5059187;28;20225;-77
2021/04/28 05:06:39;;;;;;;12.70;11.10;;;4.60;1.00;;;;;;5055535;28;20229;-81
2021/04/28 05:09:06;;;;;;;13.10;11.70;;;4.70;1.00;;;;;;5072736;28;20230;-78
2021/04/28 05:11:32;;;;;;;12.85;11.50;;;4.70;1.00;;;;;;5054146;28;20224;-78
2021/04/28 05:13:58;;;;;;;16.08;10.82;;;4.80;1.00;;;;;;5077095;28;20274;-77
2021/04/28 05:16:25;;;;;;;16.45;11.75;;;4.80;1.00;;;;;;5072890;28;20229;-79
2021/04/28 05:18:53;;;;;;;14.30;11.07;;;4.90;1.00;;;;;;5053874;28;20225;-78
2021/04/28 05:21:19;;;;;;;15.20;11.25;;;4.90;1.00;;;;;;5070391;28;20236;-78
2021/04/28 05:23:46;;;;;;;12.07;10.80;;;4.90;1.00;;;;;;5071778;28;20229;-78
2021/04/28 05:26:13;;;;;;;13.70;11.48;;;5.00;1.00;;;;;;5071597;28;20226;-80
2021/04/28 05:28:39;;;;;;;15.00;12.30;;;5.00;1.00;;;;;;5060698;28;20229;-78
2021/04/28 05:31:05;;;;;;;17.27;11.10;;;5.10;1.00;;;;;;5067578;28;20282;-75
2021/04/28 05:33:32;;;;;;;20.92;12.52;;;5.20;1.00;;;;;;5060880;28;20245;-77
2021/04/28 05:35:58;;;;;;;16.67;11.50;;;5.30;1.00;;;;;;5049073;28;20252;-76
2021/04/28 05:38:24;;;;;;;13.48;12.07;;;5.40;1.00;;;;;;5065785;28;20275;-78
2021/04/28 05:40:52;;;;;;;15.40;12.82;;;5.50;1.00;;;;;;5065973;28;20510;-78
2021/04/28 05:43:18;;;;;;;13.10;11.32;;;5.60;1.00;;;;;;5057964;28;20305;-77
2021/04/28 05:45:45;;;;;;;14.90;11.82;;;5.70;1.00;;;;;;5063272;28;20243;-79
2021/04/28 05:48:12;;;;;;;12.25;10.98;;;5.80;1.00;;;;;;5066014;28;20228;-78
2021/04/28 05:50:40;;;;;;;13.20;11.75;;;5.90;1.00;;;;;;5062648;28;20229;-83
2021/04/28 05:53:07;;;;;;;17.13;12.18;;;5.80;1.00;;;;;;5064890;28;20362;-79
2021/04/28 05:55:33;;;;;;;17.70;12.75;;;5.90;1.00;;;;;;5065285;28;21197;-79
2021/04/28 05:58:02;;;;;;;13.25;11.45;;;5.90;1.00;;;;;;5066464;28;20263;-77
2021/04/28 06:00:29;;;;;;;16.92;12.45;;;6.00;1.00;;;;;;5067216;28;20224;-78
2021/04/28 06:02:55;;;;;;;14.80;12.32;;;6.00;1.00;;;;;;5069543;28;20430;-79
2021/04/28 06:05:22;;;;;;;13.80;12.02;;;6.10;1.00;;;;;;5077187;28;21031;-78
2021/04/28 06:07:48;;;;;;;15.35;12.68;;;6.30;1.00;;;;;;5085613;28;20232;-76
2021/04/28 06:10:16;;;;;;;17.45;12.30;;;6.50;1.00;;;;;;5089703;28;20232;-78
2021/04/28 06:12:43;;;;;;;16.35;12.07;;;6.60;1.00;;;;;;5071719;28;20271;-79
2021/04/28 06:15:12;;;;;;;19.27;12.05;;;6.70;1.00;;;;;;5056977;28;20226;-78
2021/04/28 06:17:38;;;;;;;19.33;13.00;;;6.90;1.00;;;;;;5064507;28;20224;-77
2021/04/28 06:20:06;;;;;;;14.45;12.32;;;6.90;1.00;;;;;;5043240;28;20224;-79
2021/04/28 06:22:34;;;;;;;15.82;12.93;;;6.90;1.00;;;;;;5066989;28;20239;-80
2021/04/28 06:25:00;;;;;;;13.45;12.13;;;6.90;1.00;;;;;;5063214;28;20225;-77
2021/04/28 06:27:26;;;;;;;15.93;12.82;;;7.00;1.00;;;;;;5070838;28;20222;-76
2021/04/28 06:29:52;;;;;;;18.58;13.40;;;7.10;1.00;;;;;;5065673;28;20224;-78
2021/04/28 06:32:19;;;;;;;13.43;11.02;;;7.20;1.00;;;;;;5058805;28;21140;-76
2021/04/28 06:34:46;;;;;;;14.65;10.95;;;7.30;1.00;;;;;;5069466;28;20259;-78
2021/04/28 06:37:12;;;;;;;22.90;12.98;;;7.50;1.00;;;;;;5063655;28;20228;-80
2021/04/28 06:39:39;;;;;;;16.25;12.68;;;7.60;1.00;;;;;;5069830;28;20228;-77
2021/04/28 06:42:07;;;;;;;15.27;11.82;;;7.70;1.00;;;;;;5066673;28;20224;-78
2021/04/28 06:44:33;;;;;;;18.17;11.60;;;7.80;1.00;;;;;;5054769;28;20457;-80
2021/04/28 06:47:00;;;;;;;16.27;12.60;;;7.90;1.00;;;;;;5058124;28;20251;-81
2021/04/28 06:49:27;;;;;;;13.48;10.80;;;8.00;1.00;;;;;;5083533;28;20219;-79
2021/04/28 06:51:53;;;;;;;16.42;12.35;;;8.10;1.00;;;;;;5055560;28;20241;-83
2021/04/28 06:54:20;;;;;;;16.17;12.93;;;8.00;1.00;;;;;;5064530;28;20240;-81
2021/04/28 06:56:46;;;;;;;19.17;12.93;;;8.00;1.00;;;;;;5068828;28;20328;-82
2021/04/28 06:59:15;;;;;;;16.52;12.82;;;8.20;1.00;;;;;;5052230;28;20624;-80
2021/04/28 07:01:41;;;;;;;20.15;12.30;;;8.30;1.00;;;;;;5048705;28;20228;-82
2021/04/28 07:04:09;;;;;;;19.73;12.60;;;8.50;1.00;;;;;;5066654;28;20385;-82
2021/04/28 07:06:41;;;;;;;17.85;12.57;;;8.60;1.00;;;;;;5062019;28;20217;-82
2021/04/28 07:09:08;;;;;;;18.08;12.77;;;8.60;1.00;;;;;;5067564;28;20225;-83
2021/04/28 07:11:35;;;;;;;18.42;13.00;;;8.80;1.00;;;;;;5070489;28;20232;-81
2021/04/28 07:14:04;;;;;;;13.85;12.32;;;9.10;1.00;;;;;;5065340;28;20217;-81
2021/04/28 07:16:32;;;;;;;16.25;12.70;;;9.10;1.00;;;;;;5052297;28;20324;-83
2021/04/28 07:18:59;;;;;;;15.20;12.68;;;9.20;1.00;;;;;;5046747;28;20229;-82
2021/04/28 07:21:25;;;;;;;19.13;15.07;;;9.30;1.00;;;;;;5061781;28;20251;-81
2021/04/28 07:23:52;;;;;;;15.63;12.80;;;9.40;1.00;;;;;;5048444;28;20245;-84
2021/04/28 07:26:19;;;;;;;14.65;12.75;;;9.60;1.00;;;;;;5047808;28;20249;-83
2021/04/28 07:28:49;;;;;;;15.18;13.65;;;9.70;1.00;;;;;;5062786;28;20240;-82
2021/04/28 07:31:16;;;;;;;18.88;13.02;;;9.90;1.00;;;;;;5064415;28;20244;-81
2021/04/28 07:33:43;;;;;;;20.77;12.77;;;10.00;1.00;;;;;;5064863;28;20224;-81
2021/04/28 07:36:10;;;;;;;15.15;13.10;;;10.20;1.00;;;;;;5062611;28;20217;-82
2021/04/28 07:38:36;;;;;;;14.98;12.88;;;10.40;1.00;;;;;;5069900;28;20379;-82
2021/04/28 07:41:04;;;;;;;14.80;12.20;;;10.60;1.00;;;;;;5070739;28;20213;-80
2021/04/28 07:43:30;;;;;;;18.13;12.75;;;10.70;1.00;;;;;;5075878;28;20426;-80
2021/04/28 07:45:56;;;;;;;13.15;11.88;;;10.80;1.00;;;;;;5073081;28;20235;-80
2021/04/28 07:48:23;;;;;;;18.98;14.90;;;10.80;1.00;;;;;;5084590;28;20217;-83
2021/04/28 07:50:51;;;;;;;14.10;12.65;;;10.90;1.00;;;;;;5075790;28;20215;-82
2021/04/28 07:53:17;;;;;;;16.67;14.90;;;11.10;1.00;;;;;;5076112;28;20228;-81
2021/04/28 07:55:47;;;;;;;14.55;12.13;;;11.20;1.00;;;;;;5065399;28;20514;-80
2021/04/28 07:58:15;;;;;;;18.50;15.00;;;11.20;1.00;;;;;;5063968;28;20226;-81
2021/04/28 08:00:42;;;;;;;17.65;14.45;;;11.10;1.00;;;;;;5067042;28;20575;-82
2021/04/28 08:03:08;;;;;;;13.68;12.27;;;11.30;1.00;;;;;;5035991;28;20250;-82
2021/04/28 08:05:35;;;;;;;16.30;12.70;;;11.40;1.00;;;;;;5057985;28;20229;-79
2021/04/28 08:08:02;;;;;;;13.70;12.30;;;11.50;1.00;;;;;;5068286;28;20552;-81
2021/04/28 08:10:29;;;;;;;15.80;13.10;;;11.70;1.00;;;;;;5054123;28;20463;-79
2021/04/28 08:12:56;;;;;;;16.77;12.70;;;11.80;1.00;;;;;;5065359;28;20439;-83
2021/04/28 08:15:23;;;;;;;14.57;13.10;;;12.00;1.00;;;;;;5050013;28;20487;-79
2021/04/28 08:17:49;;;;;;;14.37;13.07;;;12.10;1.00;;;;;;5066506;28;20548;-81
2021/04/28 08:20:16;;;;;;;19.13;12.73;;;12.20;1.00;;;;;;5068241;28;20443;-81
2021/04/28 08:22:43;;;;;;;15.97;13.30;;;12.20;1.00;;;;;;5064348;28;20491;-78
2021/04/28 08:25:12;;;;;;;15.90;12.53;;;12.20;1.00;;;;;;5065254;28;20459;-81
2021/04/28 08:27:39;;;;;;;14.80;13.20;;;12.30;1.00;;;;;;5071015;28;20586;-81
2021/04/28 08:30:08;;;;;;;12.80;11.60;;;12.50;1.00;;;;;;5067548;28;20503;-80
2021/04/28 08:32:35;;;;;;;14.10;12.50;;;12.40;1.00;;;;;;5068638;28;21007;-88
2021/04/28 08:35:03;;;;;;;15.20;12.27;;;12.60;1.00;;;;;;5074621;28;20618;-80
2021/04/28 08:37:29;;;;;;;18.43;14.53;;;12.60;1.00;;;;;;5063295;28;20464;-77
2021/04/28 08:39:55;;;;;;;15.83;13.40;;;12.80;1.00;;;;;;5048623;28;20433;-80
2021/04/28 08:42:22;;;;;;;16.63;12.90;;;12.70;1.00;;;;;;5060170;28;20763;-79
2021/04/28 08:44:48;;;;;;;16.70;13.30;;;12.90;1.00;;;;;;5065422;28;20459;-80
2021/04/28 08:47:14;;;;;;;15.60;13.20;;;13.00;1.00;;;;;;5075535;28;20413;-82
2021/04/28 08:49:42;;;;;;;17.10;13.17;;;13.20;1.00;;;;;;5081330;28;20479;-82
2021/04/28 08:52:08;;;;;;;14.50;12.73;;;13.30;1.00;;;;;;5064613;28;20448;-79
2021/04/28 08:54:37;;;;;;;16.00;12.70;;;13.40;1.00;;;;;;5058648;28;20484;-81
2021/04/28 08:57:05;;;;;;;17.27;13.37;;;13.50;1.00;;;;;;5071353;28;20966;-80
2021/04/28 08:59:31;;;;;;;17.00;12.90;;;13.60;1.00;;;;;;5047959;28;20486;-82
2021/04/28 09:02:11;;;;;;;18.30;12.57;;;13.70;1.00;;;;;;5080016;28;20497;-82
2021/04/28 09:05:01;;;;;;;14.00;12.30;;;14.00;1.00;;;;;;5068219;28;20557;-82
2021/04/28 09:07:29;;;;;;;13.87;12.33;;;14.00;1.00;;;;;;5054522;28;20411;-81
2021/04/28 09:10:00;;;;;;;15.30;13.70;;;14.10;1.00;;;;;;5070236;28;20482;-84
2021/04/28 09:12:27;;;;;;;17.03;14.00;;;14.40;1.00;;;;;;5089602;28;20411;-80
2021/04/28 09:14:54;;;;;;;17.40;12.80;;;14.70;1.00;;;;;;5095902;28;20424;-81
2021/04/28 09:17:20;;;;;;;17.20;13.00;;;14.90;1.00;;;;;;5077206;28;20405;-79
2021/04/28 09:19:53;;;;;;;13.87;12.60;;;15.10;1.00;;;;;;5090894;28;20409;-78
2021/04/28 09:22:21;;;;;;;18.60;14.60;;;15.20;1.00;;;;;;5090875;28;20472;-79
2021/04/28 09:24:50;;;;;;;14.60;13.20;;;15.40;1.00;;;;;;5086284;28;20460;-81
2021/04/28 09:27:27;;;;;;;19.20;13.73;;;15.60;1.00;;;;;;5095305;28;20396;-81
2021/04/28 09:29:53;;;;;;;18.07;13.20;;;15.60;1.00;;;;;;5075120;28;20450;-83
2021/04/28 09:32:29;;;;;;;16.03;14.30;;;16.00;1.00;;;;;;5075706;28;20459;-82
2021/04/28 09:35:12;;;;;;;15.87;14.07;;;16.90;1.00;;;;;;5088771;28;20427;-84
2021/04/28 09:37:52;;;;;;;14.60;13.10;;;18.10;1.00;;;;;;5088850;28;20487;-84
2021/04/28 09:40:20;;;;;;;16.00;14.40;;;19.70;1.00;;;;;;5075832;28;20442;-85
2021/04/28 09:42:53;;;;;;;17.43;13.80;;;21.10;1.00;;;;;;5082883;28;20473;-82
2021/04/28 09:45:41;;;;;;;15.37;13.87;;;22.30;1.00;;;;;;5076936;28;20411;-82
2021/04/28 09:48:12;;;;;;;16.73;13.90;;;23.40;1.00;;;;;;5093504;28;20407;-81
2021/04/28 09:50:38;;;;;;;18.30;14.63;;;24.10;1.00;;;;;;5079930;28;20427;-87
2021/04/28 09:53:06;;;;;;;17.00;12.97;;;24.70;1.00;;;;;;5070845;28;20475;-82
2021/04/28 09:55:45;;;;;;;16.77;14.57;;;25.00;1.00;;;;;;5071790;28;20448;-83
2021/04/28 09:58:12;;;;;;;15.60;14.00;;;25.90;1.00;;;;;;5087726;28;20500;-81
2021/04/28 10:00:40;;;;;;;14.43;12.80;;;26.40;1.00;;;;;;5089635;28;20459;-82
2021/04/28 10:03:09;;;;;;;16.40;14.80;;;26.60;1.00;;;;;;5085689;28;20461;-82
2021/04/28 10:05:41;;;;;;;14.93;13.50;;;26.80;1.00;;;;;;5079384;28;20469;-85
2021/04/28 10:08:11;;;;;;;15.97;14.30;;;26.80;1.00;;;;;;5065338;28;20425;-79
2021/04/28 10:10:38;;;;;;;12.90;11.70;;;27.00;1.00;;;;;;5062559;28;20464;-78
2021/04/28 10:13:05;;;;;;;13.13;11.90;;;26.30;1.00;;;;;;5064906;28;20450;-77
2021/04/28 10:15:32;;;;;;;11.80;10.70;;;26.30;1.00;;;;;;5057034;28;20430;-77
2021/04/28 10:18:02;;;;;;;13.93;12.63;;;26.70;1.00;;;;;;5064533;28;20649;-77
2021/04/28 10:20:30;;;;;;;14.07;12.30;;;27.30;1.00;;;;;;5049138;28;20449;-78
2021/04/28 10:23:01;;;;;;;15.23;13.13;;;28.10;1.00;;;;;;5059584;28;20442;-78
2021/04/28 10:25:29;;;;;;;13.53;12.17;;;28.40;1.00;;;;;;5062414;28;20466;-79
2021/04/28 10:27:56;;;;;;;13.50;12.20;;;28.40;1.00;;;;;;5056882;28;20462;-79
2021/04/28 10:30:22;;;;;;;17.33;13.40;;;28.10;1.00;;;;;;5044089;28;20535;-77
2021/04/28 10:32:51;;;;;;;13.47;12.23;;;28.80;1.00;;;;;;5058025;28;20570;-77
2021/04/28 10:35:20;;;;;;;14.73;13.23;;;29.30;1.00;;;;;;5060473;28;20459;-80
2021/04/28 10:37:50;;;;;;;13.17;11.97;;;29.20;1.00;;;;;;5049224;28;20548;-79
2021/04/28 10:40:18;;;;;;;14.20;12.70;;;29.70;1.00;;;;;;5063458;28;20455;-79
2021/04/28 10:42:45;;;;;;;14.37;12.97;;;28.60;1.00;;;;;;5065091;28;20478;-77
2021/04/28 10:45:30;;;;;;;15.73;13.33;;;27.90;1.00;;;;;;5049912;28;20481;-77
2021/04/28 10:47:57;;;;;;;14.57;13.07;;;28.10;1.00;;;;;;5073138;28;20466;-77
2021/04/28 10:50:24;;;;;;;15.93;12.50;;;28.30;1.00;;;;;;5088513;28;20410;-77
2021/04/28 10:53:00;;;;;;;13.87;12.50;;;28.20;1.00;;;;;;5066635;28;20448;-77
2021/04/28 10:55:50;;;;;;;14.33;12.80;;;28.30;1.00;;;;;;5061921;28;20456;-78
2021/04/28 10:58:50;;;;;;;13.30;11.90;;;27.70;1.00;;;;;;5060709;28;20500;-79
2021/04/28 11:01:27;;;;;;;14.60;13.10;;;28.90;1.00;;;;;;5063455;28;20495;-80
2021/04/28 11:03:55;;;;;;;13.50;12.10;;;29.90;1.00;;;;;;5076285;28;20453;-82
2021/04/28 11:06:36;;;;;;;16.53;12.17;;;29.30;1.00;;;;;;5057575;28;20433;-81
2021/04/28 11:09:07;;;;;;;13.67;12.23;;;29.30;1.00;;;;;;5057775;28;20489;-83
2021/04/28 11:11:38;;;;;;;13.83;12.40;;;29.70;1.00;;;;;;5072021;28;20552;-83
2021/04/28 11:14:29;;;;;;;12.83;11.57;;;29.70;1.00;;;;;;5051317;28;20418;-82
2021/04/28 11:16:56;;;;;;;12.37;11.20;;;30.20;1.00;;;;;;5064913;28;20471;-81
2021/04/28 11:19:25;;;;;;;12.80;11.53;;;30.80;1.00;;;;;;5071096;28;20491;-79
2021/04/28 11:22:19;;;;;;;12.40;11.23;;;31.00;1.00;;;;;;5062601;28;20494;-82
2021/04/28 11:25:05;;;;;;;15.30;13.70;;;28.50;1.00;;;;;;5078348;28;20457;-82
2021/04/28 11:28:01;;;;;;;12.80;11.03;;;29.00;1.00;;;;;;5085154;28;20517;-81
2021/04/28 11:30:48;;;;;;;13.40;12.00;;;28.60;1.00;;;;;;5044167;28;21145;-81
2021/04/28 11:33:41;;;;;;;13.63;11.60;;;30.30;1.00;;;;;;5068935;28;20489;-78
2021/04/28 11:36:17;;;;;;;11.87;10.77;;;31.40;1.00;;;;;;5066510;28;20638;-80
2021/04/28 11:38:47;;;;;;;12.53;11.30;;;31.60;1.00;;;;;;5062425;28;21284;-83
2021/04/28 11:41:15;;;;;;;12.77;11.40;;;31.40;1.00;;;;;;5063763;28;20467;-83
2021/04/28 11:43:44;;;;;;;12.70;11.50;;;31.80;1.00;;;;;;5051905;28;20459;-82
2021/04/28 11:49:17;;;;;;;11.70;10.60;;;30.40;1.00;;;;;;5061321;28;20445;-78
2021/04/28 11:51:44;;;;;;;11.13;10.03;;;29.70;1.00;;;;;;5080341;28;20432;-78
2021/04/28 11:54:11;;;;;;;11.30;10.20;;;29.90;1.00;;;;;;5071779;28;20463;-77
2021/04/28 11:56:40;;;;;;;15.60;10.40;;;30.00;1.00;;;;;;5063709;28;20467;-79
2021/04/28 11:59:17;;;;;;;14.90;12.30;;;28.80;1.00;;;;;;5069445;28;20458;-77
2021/04/28 12:01:44;;;;;;;16.43;13.40;;;28.30;1.00;;;;;;5065850;28;20574;-81
2021/04/28 12:04:11;;;;;;;11.00;9.90;;;29.50;1.00;;;;;;5064044;28;20473;-78
2021/04/28 12:06:39;;;;;;;12.23;9.60;;;30.70;1.00;;;;;;5068900;28;20446;-81
2021/04/28 12:09:27;;;;;;;14.93;11.73;;;32.30;1.00;;;;;;5066329;28;21386;-78
2021/04/28 12:12:14;;;;;;;10.97;9.87;;;33.50;1.00;;;;;;5063079;28;20412;-81
2021/04/28 12:14:43;;;;;;;10.83;9.83;;;33.30;1.00;;;;;;5062347;28;20459;-80
2021/04/28 12:17:10;;;;;;;11.67;10.47;;;31.30;1.00;;;;;;5058764;28;20442;-80
2021/04/28 12:19:37;;;;;;;13.20;10.90;;;30.20;1.00;;;;;;5063068;28;20460;-79
2021/04/28 12:22:04;;;;;;;13.30;10.60;;;30.50;1.00;;;;;;5059864;28;20445;-80
2021/04/28 12:24:33;;;;;;;12.00;10.80;;;31.00;1.00;;;;;;5061788;28;20475;-75
2021/04/28 12:27:11;;;;;;;11.07;9.97;;;31.80;1.00;;;;;;5054518;28;20411;-75
2021/04/28 12:29:39;;;;;;;11.50;10.40;;;31.70;1.00;;;;;;5055442;28;20458;-75
2021/04/28 12:32:07;;;;;;;12.47;11.17;;;29.60;1.00;;;;;;5054811;28;20604;-73
2021/04/28 12:34:35;;;;;;;11.47;10.27;;;27.20;1.00;;;;;;5051395;28;20449;-80
2021/04/28 12:37:18;;;;;;;11.87;10.67;;;26.70;1.00;;;;;;5068660;28;20471;-83
2021/04/28 12:39:54;;;;;;;11.50;10.40;;;28.10;1.00;;;;;;5078429;28;20440;-86
2021/04/28 12:42:24;;;;;;;10.83;9.63;;;28.00;1.00;;;;;;5066787;28;20463;-83
2021/04/28 12:44:52;;;;;;;10.73;9.40;;;27.40;1.00;;;;;;5088421;28;20456;-83
2021/04/28 12:47:24;;;;;;;11.00;8.90;;;28.10;1.00;;;;;;5061363;28;20426;-82
2021/04/28 12:50:19;;;;;;;11.03;9.93;;;28.10;1.00;;;;;;5081682;28;20578;-83
2021/04/28 12:52:45;;;;;;;9.37;8.47;;;26.20;1.00;;;;;;5080099;28;20573;-85
2021/04/28 12:55:30;;;;;;;9.20;8.40;;;26.70;1.00;;;;;;5070663;28;20493;-83
2021/04/28 12:57:59;;;;;;;10.10;8.80;;;28.00;1.00;;;;;;5060870;28;20430;-87
2021/04/28 13:00:28;;;;;;;12.17;8.60;;;28.80;1.00;;;;;;5076435;28;20449;-85